sensor_id;sensor_type;location;lat;lon;timestamp;pressure;altitude;pressure_sealevel;temperature;humidity
32251;BME280;41295;48.518;9.206;2023-07-20T00:01:41;97123.81;;;22.96;45.92
32251;BME280;41295;48.518;9.206;2023-07-20T00:03:46;97120.63;;;23.02;46.45
32251;BME280;41295;48.518;9.206;2023-07-20T00:05:56;97115.72;;;22.98;46.12
32251;BME280;41295;48.518;9.206;2023-07-20T00:07:59;97123.97;;;23.04;45.73
32251;BME280;41295;48.518;9.206;2023-07-20T00:10:02;97116.16;;;23.03;45.26
32251;BME280;41295;48.518;9.206;2023-07-20T00:12:07;97113.06;;;23.07;45.06
32251;BME280;41295;48.518;9.206;2023-07-20T00:14:09;97125.38;;;22.99;45.16
32251;BME280;41295;48.518;9.206;2023-07-20T00:16:12;97117.13;;;22.92;45.49
32251;BME280;41295;48.518;9.206;2023-07-20T00:18:15;97119.38;;;22.87;45.24
32251;BME280;41295;48.518;9.206;2023-07-20T00:20:17;97118.53;;;22.86;45.17
32251;BME280;41295;48.518;9.206;2023-07-20T00:22:19;97113.63;;;22.81;45.57
32251;BME280;41295;48.518;9.206;2023-07-20T00:24:22;97111.97;;;22.90;45.86
32251;BME280;41295;48.518;9.206;2023-07-20T00:26:24;97116.41;;;22.80;45.51
32251;BME280;41295;48.518;9.206;2023-07-20T00:28:28;97117.41;;;22.79;45.34
32251;BME280;41295;48.518;9.206;2023-07-20T00:30:31;97117.41;;;22.69;45.93
32251;BME280;41295;48.518;9.206;2023-07-20T00:32:34;97115.56;;;22.69;45.99
32251;BME280;41295;48.518;9.206;2023-07-20T00:34:37;97112.75;;;22.71;45.59
32251;BME280;41295;48.518;9.206;2023-07-20T00:36:39;97110.81;;;22.73;45.12
32251;BME280;41295;48.518;9.206;2023-07-20T00:38:43;97109.16;;;22.72;45.20
32251;BME280;41295;48.518;9.206;2023-07-20T00:40:45;97106.63;;;22.70;45.03
32251;BME280;41295;48.518;9.206;2023-07-20T00:42:49;97107.59;;;22.69;45.10
32251;BME280;41295;48.518;9.206;2023-07-20T00:44:52;97109.56;;;22.77;44.96
32251;BME280;41295;48.518;9.206;2023-07-20T00:46:55;97109.28;;;22.70;44.87
32251;BME280;41295;48.518;9.206;2023-07-20T00:48:58;97105.09;;;22.68;44.10
32251;BME280;41295;48.518;9.206;2023-07-20T00:51:01;97105.94;;;22.68;43.93
32251;BME280;41295;48.518;9.206;2023-07-20T00:53:05;97105.09;;;22.68;43.61
32251;BME280;41295;48.518;9.206;2023-07-20T00:55:09;97104.78;;;22.61;44.37
32251;BME280;41295;48.518;9.206;2023-07-20T00:57:14;97107.44;;;22.61;44.36
32251;BME280;41295;48.518;9.206;2023-07-20T00:59:17;97109.13;;;22.62;44.25
32251;BME280;41295;48.518;9.206;2023-07-20T01:01:21;97111.91;;;22.51;44.27
32251;BME280;41295;48.518;9.206;2023-07-20T01:03:24;97111.34;;;22.47;44.64
32251;BME280;41295;48.518;9.206;2023-07-20T01:05:35;97110.63;;;22.45;44.80
32251;BME280;41295;48.518;9.206;2023-07-20T01:07:43;97109.53;;;22.47;44.50
32251;BME280;41295;48.518;9.206;2023-07-20T01:09:54;97107.25;;;22.43;44.58
32251;BME280;41295;48.518;9.206;2023-07-20T01:12:05;97110.75;;;22.43;45.12
32251;BME280;41295;48.518;9.206;2023-07-20T01:14:14;97103.94;;;22.51;45.04
32251;BME280;41295;48.518;9.206;2023-07-20T01:16:16;97107.81;;;22.46;44.61
32251;BME280;41295;48.518;9.206;2023-07-20T01:18:20;97106.88;;;22.47;44.45
32251;BME280;41295;48.518;9.206;2023-07-20T01:20:23;97107.44;;;22.51;43.88
32251;BME280;41295;48.518;9.206;2023-07-20T01:22:41;97106.59;;;22.51;43.69
32251;BME280;41295;48.518;9.206;2023-07-20T01:24:57;97107.81;;;22.46;44.31
32251;BME280;41295;48.518;9.206;2023-07-20T01:27:26;97111.34;;;22.47;44.39
32251;BME280;41295;48.518;9.206;2023-07-20T01:29:55;97102.94;;;22.52;44.83
32251;BME280;41295;48.518;9.206;2023-07-20T01:32:06;97103.34;;;22.47;45.26
32251;BME280;41295;48.518;9.206;2023-07-20T01:34:12;97105.44;;;22.43;44.59
32251;BME280;41295;48.518;9.206;2023-07-20T01:36:18;97105.16;;;22.46;44.24
32251;BME280;41295;48.518;9.206;2023-07-20T01:38:23;97103.34;;;22.47;44.09
32251;BME280;41295;48.518;9.206;2023-07-20T01:40:26;97105.88;;;22.39;44.19
32251;BME280;41295;48.518;9.206;2023-07-20T01:42:30;97105.84;;;22.29;44.60
32251;BME280;41295;48.518;9.206;2023-07-20T01:44:32;97102.34;;;22.28;45.52
32251;BME280;41295;48.518;9.206;2023-07-20T01:46:35;97095.34;;;22.27;44.78
32251;BME280;41295;48.518;9.206;2023-07-20T01:48:39;97092.69;;;22.27;44.76
32251;BME280;41295;48.518;9.206;2023-07-20T01:50:42;97088.50;;;22.25;45.02
32251;BME280;41295;48.518;9.206;2023-07-20T01:52:45;97102.34;;;22.28;45.13
32251;BME280;41295;48.518;9.206;2023-07-20T01:54:48;97091.03;;;22.26;45.24
32251;BME280;41295;48.518;9.206;2023-07-20T01:56:50;97100.53;;;22.29;45.49
32251;BME280;41295;48.518;9.206;2023-07-20T01:58:53;97094.69;;;22.35;45.33
32251;BME280;41295;48.518;9.206;2023-07-20T02:00:56;97098.88;;;22.38;45.27
32251;BME280;41295;48.518;9.206;2023-07-20T02:02:58;97104.75;;;22.41;44.91
32251;BME280;41295;48.518;9.206;2023-07-20T02:05:03;97106.56;;;22.41;44.89
32251;BME280;41295;48.518;9.206;2023-07-20T02:07:07;97097.44;;;22.33;44.90
32251;BME280;41295;48.518;9.206;2023-07-20T02:09:09;97093.53;;;22.28;44.77
32251;BME280;41295;48.518;9.206;2023-07-20T02:11:14;97091.84;;;22.27;44.93
32251;BME280;41295;48.518;9.206;2023-07-20T02:13:17;97107.53;;;22.30;45.04
32251;BME280;41295;48.518;9.206;2023-07-20T02:15:20;97103.75;;;22.32;44.65
32251;BME280;41295;48.518;9.206;2023-07-20T02:17:22;97107.78;;;22.27;44.73
32251;BME280;41295;48.518;9.206;2023-07-20T02:19:25;97104.69;;;22.21;44.71
32251;BME280;41295;48.518;9.206;2023-07-20T02:21:29;97104.16;;;22.28;44.94
32251;BME280;41295;48.518;9.206;2023-07-20T02:23:32;97114.78;;;22.28;45.00
32251;BME280;41295;48.518;9.206;2023-07-20T02:25:35;97107.50;;;22.20;45.15
32251;BME280;41295;48.518;9.206;2023-07-20T02:27:38;97099.25;;;22.23;44.49
32251;BME280;41295;48.518;9.206;2023-07-20T02:29:41;97098.69;;;22.19;44.76
32251;BME280;41295;48.518;9.206;2023-07-20T02:31:44;97101.91;;;22.23;44.70
32251;BME280;41295;48.518;9.206;2023-07-20T02:33:47;97104.25;;;22.06;44.63
32251;BME280;41295;48.518;9.206;2023-07-20T02:35:50;97104.06;;;21.98;44.92
32251;BME280;41295;48.518;9.206;2023-07-20T02:37:55;97102.53;;;21.95;45.44
32251;BME280;41295;48.518;9.206;2023-07-20T02:39:57;97104.03;;;21.88;45.38
32251;BME280;41295;48.518;9.206;2023-07-20T02:41:59;97106.56;;;21.90;45.36
32251;BME280;41295;48.518;9.206;2023-07-20T02:44:02;97110.66;;;21.72;45.31
32251;BME280;41295;48.518;9.206;2023-07-20T02:46:05;97113.69;;;21.68;45.64
32251;BME280;41295;48.518;9.206;2023-07-20T02:48:07;97123.06;;;21.72;45.17
32251;BME280;41295;48.518;9.206;2023-07-20T02:50:10;97121.66;;;21.68;45.46
32251;BME280;41295;48.518;9.206;2023-07-20T02:52:12;97112.47;;;21.72;45.95
32251;BME280;41295;48.518;9.206;2023-07-20T02:54:16;97114.13;;;21.73;45.32
32251;BME280;41295;48.518;9.206;2023-07-20T02:56:19;97127.94;;;21.67;45.59
32251;BME280;41295;48.518;9.206;2023-07-20T02:58:22;97128.53;;;21.70;45.72
32251;BME280;41295;48.518;9.206;2023-07-20T03:00:25;97131.56;;;21.66;45.61
32251;BME280;41295;48.518;9.206;2023-07-20T03:02:29;97128.72;;;21.57;45.55
32251;BME280;41295;48.518;9.206;2023-07-20T03:04:32;97116.03;;;21.61;45.47
32251;BME280;41295;48.518;9.206;2023-07-20T03:06:35;97121.78;;;21.66;45.67
32251;BME280;41295;48.518;9.206;2023-07-20T03:08:38;97120.13;;;21.65;45.84
32251;BME280;41295;48.518;9.206;2023-07-20T03:10:44;97110.09;;;21.69;45.62
32251;BME280;41295;48.518;9.206;2023-07-20T03:12:46;97117.63;;;21.73;45.71
32251;BME280;41295;48.518;9.206;2023-07-20T03:14:49;97113.81;;;21.66;45.67
32251;BME280;41295;48.518;9.206;2023-07-20T03:16:50;97118.38;;;21.54;45.55
32251;BME280;41295;48.518;9.206;2023-07-20T03:18:53;97126.19;;;21.56;45.58
32251;BME280;41295;48.518;9.206;2023-07-20T03:20:56;97129.50;;;21.48;45.93
32251;BME280;41295;48.518;9.206;2023-07-20T03:22:59;97123.25;;;21.49;46.04
32251;BME280;41295;48.518;9.206;2023-07-20T03:25:02;97122.97;;;21.52;46.67
32251;BME280;41295;48.518;9.206;2023-07-20T03:27:07;97125.75;;;21.50;46.84
32251;BME280;41295;48.518;9.206;2023-07-20T03:29:10;97130.53;;;21.35;47.21
32251;BME280;41295;48.518;9.206;2023-07-20T03:31:13;97127.56;;;21.29;47.41
32251;BME280;41295;48.518;9.206;2023-07-20T03:33:16;97135.34;;;21.20;47.29
32251;BME280;41295;48.518;9.206;2023-07-20T03:35:19;97135.25;;;21.10;47.59
32251;BME280;41295;48.518;9.206;2023-07-20T03:37:21;97129.84;;;21.12;47.32
32251;BME280;41295;48.518;9.206;2023-07-20T03:39:24;97133.00;;;21.06;47.33
32251;BME280;41295;48.518;9.206;2023-07-20T03:41:27;97131.19;;;21.06;47.68
32251;BME280;41295;48.518;9.206;2023-07-20T03:43:31;97142.75;;;21.05;47.90
32251;BME280;41295;48.518;9.206;2023-07-20T03:45:33;97135.97;;;21.12;48.23
32251;BME280;41295;48.518;9.206;2023-07-20T03:47:36;97133.19;;;21.14;48.42
32251;BME280;41295;48.518;9.206;2023-07-20T03:49:39;97138.84;;;21.21;48.33
32251;BME280;41295;48.518;9.206;2023-07-20T03:51:42;97145.22;;;21.18;47.94
32251;BME280;41295;48.518;9.206;2023-07-20T03:53:44;97138.03;;;21.09;48.14
32251;BME280;41295;48.518;9.206;2023-07-20T03:55:47;97145.78;;;21.00;48.37
32251;BME280;41295;48.518;9.206;2023-07-20T03:57:50;97149.16;;;20.91;48.74
32251;BME280;41295;48.518;9.206;2023-07-20T03:59:54;97135.69;;;20.94;48.65
32251;BME280;41295;48.518;9.206;2023-07-20T04:01:57;97147.22;;;20.93;48.85
32251;BME280;41295;48.518;9.206;2023-07-20T04:04:00;97141.09;;;20.92;49.03
32251;BME280;41295;48.518;9.206;2023-07-20T04:06:03;97144.84;;;20.90;48.64
32251;BME280;41295;48.518;9.206;2023-07-20T04:08:05;97149.03;;;20.92;48.83
32251;BME280;41295;48.518;9.206;2023-07-20T04:10:09;97150.75;;;20.82;49.01
32251;BME280;41295;48.518;9.206;2023-07-20T04:12:11;97145.53;;;20.59;49.55
32251;BME280;41295;48.518;9.206;2023-07-20T04:14:14;97148.44;;;20.45;50.23
32251;BME280;41295;48.518;9.206;2023-07-20T04:16:18;97153.88;;;20.54;50.33
32251;BME280;41295;48.518;9.206;2023-07-20T04:18:21;97155.75;;;20.64;50.22
32251;BME280;41295;48.518;9.206;2023-07-20T04:20:24;97159.84;;;20.68;50.09
32251;BME280;41295;48.518;9.206;2023-07-20T04:22:27;97162.94;;;20.73;49.95
32251;BME280;41295;48.518;9.206;2023-07-20T04:24:29;97160.34;;;20.62;48.86
32251;BME280;41295;48.518;9.206;2023-07-20T04:26:32;97156.97;;;20.60;49.46
32251;BME280;41295;48.518;9.206;2023-07-20T04:28:35;97151.81;;;20.47;50.57
32251;BME280;41295;48.518;9.206;2023-07-20T04:30:38;97166.25;;;20.42;50.60
32251;BME280;41295;48.518;9.206;2023-07-20T04:32:43;97163.88;;;20.39;51.25
32251;BME280;41295;48.518;9.206;2023-07-20T04:34:47;97160.88;;;20.33;51.61
32251;BME280;41295;48.518;9.206;2023-07-20T04:36:49;97163.31;;;20.24;51.54
32251;BME280;41295;48.518;9.206;2023-07-20T04:38:52;97151.72;;;20.14;52.19
32251;BME280;41295;48.518;9.206;2023-07-20T04:40:55;97159.53;;;20.04;52.47
32251;BME280;41295;48.518;9.206;2023-07-20T04:42:57;97157.38;;;19.98;52.13
32251;BME280;41295;48.518;9.206;2023-07-20T04:45:00;97151.25;;;19.97;52.62
32251;BME280;41295;48.518;9.206;2023-07-20T04:47:03;97163.16;;;19.91;52.85
32251;BME280;41295;48.518;9.206;2023-07-20T04:49:08;97156.41;;;19.87;52.87
32251;BME280;41295;48.518;9.206;2023-07-20T04:51:10;97155.91;;;19.82;52.68
32251;BME280;41295;48.518;9.206;2023-07-20T04:53:13;97155.22;;;19.91;52.81
32251;BME280;41295;48.518;9.206;2023-07-20T04:55:18;97163.75;;;19.95;52.27
32251;BME280;41295;48.518;9.206;2023-07-20T04:57:23;97159.06;;;19.99;51.63
32251;BME280;41295;48.518;9.206;2023-07-20T04:59:26;97157.66;;;20.06;51.54
32251;BME280;41295;48.518;9.206;2023-07-20T05:01:29;97159.06;;;19.99;51.29
32251;BME280;41295;48.518;9.206;2023-07-20T05:03:32;97161.59;;;20.00;51.11
32251;BME280;41295;48.518;9.206;2023-07-20T05:05:37;97166.16;;;19.98;50.87
32251;BME280;41295;48.518;9.206;2023-07-20T05:07:39;97170.03;;;20.05;50.76
32251;BME280;41295;48.518;9.206;2023-07-20T05:09:42;97165.34;;;20.21;51.28
32251;BME280;41295;48.518;9.206;2023-07-20T05:11:44;97168.94;;;20.31;51.19
32251;BME280;41295;48.518;9.206;2023-07-20T05:13:49;97173.38;;;20.42;50.88
32251;BME280;41295;48.518;9.206;2023-07-20T05:15:52;97166.00;;;20.57;48.62
32251;BME280;41295;48.518;9.206;2023-07-20T05:17:54;97168.06;;;20.53;48.99
32251;BME280;41295;48.518;9.206;2023-07-20T05:19:57;97168.31;;;20.62;49.38
32251;BME280;41295;48.518;9.206;2023-07-20T05:22:01;97166.00;;;20.69;48.73
32251;BME280;41295;48.518;9.206;2023-07-20T05:24:05;97171.41;;;20.67;48.80
32251;BME280;41295;48.518;9.206;2023-07-20T05:26:08;97170.91;;;20.73;48.75
32251;BME280;41295;48.518;9.206;2023-07-20T05:28:11;97167.41;;;20.73;48.76
32251;BME280;41295;48.518;9.206;2023-07-20T05:30:14;97166.81;;;20.69;49.16
32251;BME280;41295;48.518;9.206;2023-07-20T05:32:16;97170.19;;;20.71;49.03
32251;BME280;41295;48.518;9.206;2023-07-20T05:34:19;97157.41;;;20.76;48.57
32251;BME280;41295;48.518;9.206;2023-07-20T05:36:22;97162.66;;;20.88;48.31
32251;BME280;41295;48.518;9.206;2023-07-20T05:38:26;97168.13;;;20.75;48.64
32251;BME280;41295;48.518;9.206;2023-07-20T05:40:29;97167.31;;;20.74;49.16
32251;BME280;41295;48.518;9.206;2023-07-20T05:42:32;97173.16;;;20.78;49.38
32251;BME280;41295;48.518;9.206;2023-07-20T05:44:34;97161.03;;;20.75;48.91
32251;BME280;41295;48.518;9.206;2023-07-20T05:46:38;97161.63;;;20.79;49.13
32251;BME280;41295;48.518;9.206;2023-07-20T05:48:57;97155.44;;;20.90;49.29
32251;BME280;41295;48.518;9.206;2023-07-20T05:50:59;97172.88;;;20.92;49.33
32251;BME280;41295;48.518;9.206;2023-07-20T05:53:02;97167.38;;;20.96;49.36
32251;BME280;41295;48.518;9.206;2023-07-20T05:55:07;97163.13;;;21.05;49.31
32251;BME280;41295;48.518;9.206;2023-07-20T05:57:10;97171.66;;;21.08;49.30
32251;BME280;41295;48.518;9.206;2023-07-20T05:59:12;97169.97;;;21.07;49.14
32251;BME280;41295;48.518;9.206;2023-07-20T06:01:15;97175.00;;;21.10;48.20
32251;BME280;41295;48.518;9.206;2023-07-20T06:03:19;97177.44;;;21.13;48.83
32251;BME280;41295;48.518;9.206;2023-07-20T06:05:23;97171.66;;;21.08;48.64
32251;BME280;41295;48.518;9.206;2023-07-20T06:07:30;97169.47;;;21.13;48.43
32251;BME280;41295;48.518;9.206;2023-07-20T06:09:32;97172.13;;;21.13;48.47
32251;BME280;41295;48.518;9.206;2023-07-20T06:11:37;97172.00;;;21.15;48.88
32251;BME280;41295;48.518;9.206;2023-07-20T06:13:39;97183.19;;;21.19;48.79
32251;BME280;41295;48.518;9.206;2023-07-20T06:15:42;97184.38;;;21.26;48.71
32251;BME280;41295;48.518;9.206;2023-07-20T06:17:45;97181.59;;;21.27;48.80
32251;BME280;41295;48.518;9.206;2023-07-20T06:19:47;97172.38;;;21.32;48.38
32251;BME280;41295;48.518;9.206;2023-07-20T06:21:50;97174.81;;;21.35;48.69
32251;BME280;41295;48.518;9.206;2023-07-20T06:23:53;97172.97;;;21.35;48.42
32251;BME280;41295;48.518;9.206;2023-07-20T06:25:55;97172.97;;;21.35;48.54
32251;BME280;41295;48.518;9.206;2023-07-20T06:27:59;97169.38;;;21.36;48.81
32251;BME280;41295;48.518;9.206;2023-07-20T06:30:03;97176.72;;;21.33;48.62
32251;BME280;41295;48.518;9.206;2023-07-20T06:32:07;97172.28;;;21.33;49.09
32251;BME280;41295;48.518;9.206;2023-07-20T06:34:09;97167.28;;;21.40;48.98
32251;BME280;41295;48.518;9.206;2023-07-20T06:36:12;97164.50;;;21.42;48.31
32251;BME280;41295;48.518;9.206;2023-07-20T06:38:15;97167.34;;;21.50;48.24
32251;BME280;41295;48.518;9.206;2023-07-20T06:40:21;97166.56;;;21.59;48.51
32251;BME280;41295;48.518;9.206;2023-07-20T06:42:26;97171.09;;;21.69;48.65
32251;BME280;41295;48.518;9.206;2023-07-20T06:44:50;97169.59;;;21.76;48.46
32251;BME280;41295;48.518;9.206;2023-07-20T06:46:53;97164.63;;;21.83;46.95
32251;BME280;41295;48.518;9.206;2023-07-20T06:48:56;97161.13;;;21.82;46.97
32251;BME280;41295;48.518;9.206;2023-07-20T06:51:01;97164.50;;;21.84;47.24
32251;BME280;41295;48.518;9.206;2023-07-20T06:53:04;97171.69;;;21.94;46.71
32251;BME280;41295;48.518;9.206;2023-07-20T06:55:08;97175.06;;;21.96;46.71
32251;BME280;41295;48.518;9.206;2023-07-20T06:57:10;97168.09;;;22.05;46.70
32251;BME280;41295;48.518;9.206;2023-07-20T06:59:16;97170.34;;;22.09;46.56
32251;BME280;41295;48.518;9.206;2023-07-20T07:01:20;97168.66;;;22.08;46.45
32251;BME280;41295;48.518;9.206;2023-07-20T07:03:24;97168.97;;;22.15;46.76
32251;BME280;41295;48.518;9.206;2023-07-20T07:05:29;97170.13;;;22.22;46.49
32251;BME280;41295;48.518;9.206;2023-07-20T07:07:36;97167.91;;;22.28;46.69
32251;BME280;41295;48.518;9.206;2023-07-20T07:09:42;97171.38;;;22.28;47.04
32251;BME280;41295;48.518;9.206;2023-07-20T07:11:45;97164.69;;;22.34;46.56
32251;BME280;41295;48.518;9.206;2023-07-20T07:13:47;97165.41;;;22.36;46.12
32251;BME280;41295;48.518;9.206;2023-07-20T07:15:52;97162.75;;;22.46;45.73
32251;BME280;41295;48.518;9.206;2023-07-20T07:17:56;97167.63;;;22.41;46.17
32251;BME280;41295;48.518;9.206;2023-07-20T07:20:00;97163.88;;;22.43;46.29
32251;BME280;41295;48.518;9.206;2023-07-20T07:22:04;97164.97;;;22.41;45.88
32251;BME280;41295;48.518;9.206;2023-07-20T07:24:06;97161.38;;;22.42;46.01
32251;BME280;41295;48.518;9.206;2023-07-20T07:26:11;97167.25;;;22.45;45.61
32251;BME280;41295;48.518;9.206;2023-07-20T07:28:14;97159.28;;;22.45;45.70
32251;BME280;41295;48.518;9.206;2023-07-20T07:30:17;97160.09;;;22.46;45.82
32251;BME280;41295;48.518;9.206;2023-07-20T07:32:19;97157.00;;;22.41;46.16
32251;BME280;41295;48.518;9.206;2023-07-20T07:34:23;97157.00;;;22.41;46.32
32251;BME280;41295;48.518;9.206;2023-07-20T07:36:26;97158.00;;;22.40;46.70
32251;BME280;41295;48.518;9.206;2023-07-20T07:38:29;97152.56;;;22.41;46.58
32251;BME280;41295;48.518;9.206;2023-07-20T07:40:51;97153.41;;;22.52;46.83
32251;BME280;41295;48.518;9.206;2023-07-20T07:42:54;97150.06;;;22.59;46.52
32251;BME280;41295;48.518;9.206;2023-07-20T07:44:56;97153.06;;;22.66;45.47
32251;BME280;41295;48.518;9.206;2023-07-20T07:46:59;97159.22;;;22.67;45.70
32251;BME280;41295;48.518;9.206;2023-07-20T07:49:02;97155.75;;;22.76;45.02
32251;BME280;41295;48.518;9.206;2023-07-20T07:51:06;97147.72;;;22.66;45.66
32251;BME280;41295;48.518;9.206;2023-07-20T07:53:09;97146.63;;;22.69;45.89
32251;BME280;41295;48.518;9.206;2023-07-20T07:55:12;97153.19;;;22.65;45.82
32251;BME280;41295;48.518;9.206;2023-07-20T07:57:14;97148.44;;;22.68;46.41
32251;BME280;41295;48.518;9.206;2023-07-20T07:59:16;97143.00;;;22.70;45.91
32251;BME280;41295;48.518;9.206;2023-07-20T08:01:19;97147.75;;;22.76;44.96
32251;BME280;41295;48.518;9.206;2023-07-20T08:03:22;97144.66;;;22.71;45.41
32251;BME280;41295;48.518;9.206;2023-07-20T08:05:26;97139.31;;;22.61;45.25
32251;BME280;41295;48.518;9.206;2023-07-20T08:07:30;97145.03;;;22.56;45.62
32251;BME280;41295;48.518;9.206;2023-07-20T08:09:32;97137.47;;;22.52;46.29
32251;BME280;41295;48.518;9.206;2023-07-20T08:11:35;97146.97;;;22.44;46.07
32251;BME280;41295;48.518;9.206;2023-07-20T08:13:38;97148.22;;;22.40;46.11
32251;BME280;41295;48.518;9.206;2023-07-20T08:15:48;97156.91;;;22.42;46.23
32251;BME280;41295;48.518;9.206;2023-07-20T08:17:50;97138.03;;;22.45;46.02
32251;BME280;41295;48.518;9.206;2023-07-20T08:19:54;97147.00;;;22.54;45.38
32251;BME280;41295;48.518;9.206;2023-07-20T08:21:56;97149.91;;;22.41;45.72
32251;BME280;41295;48.518;9.206;2023-07-20T08:24:00;97148.91;;;22.32;45.50
32251;BME280;41295;48.518;9.206;2023-07-20T08:26:03;97149.47;;;22.36;45.28
32251;BME280;41295;48.518;9.206;2023-07-20T08:28:05;97147.81;;;22.45;44.98
32251;BME280;41295;48.518;9.206;2023-07-20T08:30:09;97140.81;;;22.44;44.93
32251;BME280;41295;48.518;9.206;2023-07-20T08:32:12;97134.66;;;22.43;44.10
32251;BME280;41295;48.518;9.206;2023-07-20T08:34:16;97137.75;;;22.39;44.36
32251;BME280;41295;48.518;9.206;2023-07-20T08:36:32;97146.81;;;22.36;44.64
32251;BME280;41295;48.518;9.206;2023-07-20T08:38:34;97132.84;;;22.44;44.67
32251;BME280;41295;48.518;9.206;2023-07-20T08:40:44;97134.94;;;22.50;44.36
32251;BME280;41295;48.518;9.206;2023-07-20T08:42:48;97138.34;;;22.62;44.12
32251;BME280;41295;48.518;9.206;2023-07-20T08:44:53;97137.97;;;22.67;43.85
32251;BME280;41295;48.518;9.206;2023-07-20T08:46:57;97143.84;;;22.80;43.11
32251;BME280;41295;48.518;9.206;2023-07-20T08:49:03;97142.69;;;22.73;44.09
32251;BME280;41295;48.518;9.206;2023-07-20T08:51:05;97135.28;;;22.77;43.52
32251;BME280;41295;48.518;9.206;2023-07-20T08:53:08;97140.63;;;22.67;43.55
32251;BME280;41295;48.518;9.206;2023-07-20T08:55:12;97135.72;;;22.72;43.63
32251;BME280;41295;48.518;9.206;2023-07-20T08:57:17;97151.25;;;22.77;42.98
32251;BME280;41295;48.518;9.206;2023-07-20T08:59:22;97135.88;;;22.70;43.55
32251;BME280;41295;48.518;9.206;2023-07-20T09:01:27;97136.69;;;22.71;43.42
32251;BME280;41295;48.518;9.206;2023-07-20T09:03:31;97128.44;;;22.64;43.39
32251;BME280;41295;48.518;9.206;2023-07-20T09:05:35;97134.44;;;22.66;43.42
32251;BME280;41295;48.518;9.206;2023-07-20T09:07:39;97135.00;;;22.80;43.89
32251;BME280;41295;48.518;9.206;2023-07-20T09:09:41;97139.09;;;22.84;42.60
32251;BME280;41295;48.518;9.206;2023-07-20T09:11:47;97130.72;;;22.89;42.60
32251;BME280;41295;48.518;9.206;2023-07-20T09:14:03;97121.75;;;22.90;42.47
32251;BME280;41295;48.518;9.206;2023-07-20T09:16:06;97124.97;;;22.93;42.84
32251;BME280;41295;48.518;9.206;2023-07-20T09:18:09;97129.31;;;23.04;41.50
32251;BME280;41295;48.518;9.206;2023-07-20T09:20:12;97128.47;;;22.94;41.41
32251;BME280;41295;48.518;9.206;2023-07-20T09:22:14;97127.31;;;22.97;41.51
32251;BME280;41295;48.518;9.206;2023-07-20T09:24:19;97118.50;;;22.96;42.06
32251;BME280;41295;48.518;9.206;2023-07-20T09:26:24;97116.56;;;22.98;42.25
32251;BME280;41295;48.518;9.206;2023-07-20T09:28:29;97132.78;;;23.05;41.75
32251;BME280;41295;48.518;9.206;2023-07-20T09:30:33;97117.97;;;23.02;41.18
32251;BME280;41295;48.518;9.206;2023-07-20T09:32:40;97127.47;;;23.15;41.22
32251;BME280;41295;48.518;9.206;2023-07-20T09:34:47;97122.84;;;23.17;41.68
32251;BME280;41295;48.518;9.206;2023-07-20T09:36:50;97124.94;;;23.23;40.89
32251;BME280;41295;48.518;9.206;2023-07-20T09:38:56;97121.72;;;23.19;40.92
32251;BME280;41295;48.518;9.206;2023-07-20T09:41:05;97106.47;;;23.22;40.21
32251;BME280;41295;48.518;9.206;2023-07-20T09:43:28;97118.22;;;23.29;41.15
32251;BME280;41295;48.518;9.206;2023-07-20T09:45:34;97117.66;;;23.35;40.25
32251;BME280;41295;48.518;9.206;2023-07-20T09:47:40;97112.63;;;23.42;39.96
32251;BME280;41295;48.518;9.206;2023-07-20T09:49:46;97106.16;;;23.35;39.78
32251;BME280;41295;48.518;9.206;2023-07-20T09:51:53;97096.38;;;23.35;39.55
32251;BME280;41295;48.518;9.206;2023-07-20T09:53:56;97101.25;;;23.50;38.84
32251;BME280;41295;48.518;9.206;2023-07-20T09:56:00;97091.44;;;23.50;38.96
32251;BME280;41295;48.518;9.206;2023-07-20T09:58:05;97099.41;;;23.60;39.18
32251;BME280;41295;48.518;9.206;2023-07-20T10:00:08;97096.56;;;23.72;38.52
32251;BME280;41295;48.518;9.206;2023-07-20T10:02:21;97100.91;;;23.73;38.90
32251;BME280;41295;48.518;9.206;2023-07-20T10:04:25;97101.03;;;23.71;38.92
32251;BME280;41295;48.518;9.206;2023-07-20T10:06:29;97095.72;;;23.71;37.78
32251;BME280;41295;48.518;9.206;2023-07-20T10:08:33;97097.72;;;23.69;37.61
32251;BME280;41295;48.518;9.206;2023-07-20T10:10:41;97093.25;;;23.60;37.54
32251;BME280;41295;48.518;9.206;2023-07-20T10:12:47;97100.22;;;23.61;37.91
32251;BME280;41295;48.518;9.206;2023-07-20T10:14:54;97100.69;;;23.56;38.35
32251;BME280;41295;48.518;9.206;2023-07-20T10:17:04;97093.53;;;23.57;37.94
32251;BME280;41295;48.518;9.206;2023-07-20T10:19:14;97081.47;;;23.62;37.49
32251;BME280;41295;48.518;9.206;2023-07-20T10:21:20;97085.69;;;23.55;37.80
32251;BME280;41295;48.518;9.206;2023-07-20T10:23:29;97091.69;;;23.57;38.18
32251;BME280;41295;48.518;9.206;2023-07-20T10:25:31;97087.63;;;23.63;36.87
32251;BME280;41295;48.518;9.206;2023-07-20T10:27:38;97076.28;;;23.61;37.26
32251;BME280;41295;48.518;9.206;2023-07-20T10:29:42;97084.34;;;23.79;37.02
32251;BME280;41295;48.518;9.206;2023-07-20T10:31:45;97079.75;;;23.71;37.08
32251;BME280;41295;48.518;9.206;2023-07-20T10:33:48;97080.13;;;23.76;37.14
32251;BME280;41295;48.518;9.206;2023-07-20T10:35:54;97063.91;;;23.79;36.82
32251;BME280;41295;48.518;9.206;2023-07-20T10:38:00;97065.97;;;23.86;36.40
32251;BME280;41295;48.518;9.206;2023-07-20T10:40:27;97069.47;;;23.86;36.35
32251;BME280;41295;48.518;9.206;2023-07-20T10:42:33;97056.69;;;23.90;36.56
32251;BME280;41295;48.518;9.206;2023-07-20T10:44:37;97051.84;;;24.03;36.27
32251;BME280;41295;48.518;9.206;2023-07-20T10:46:43;97061.16;;;24.18;35.73
32251;BME280;41295;48.518;9.206;2023-07-20T10:49:00;97063.13;;;24.25;36.03
32251;BME280;41295;48.518;9.206;2023-07-20T10:51:11;97058.47;;;24.27;35.64
32251;BME280;41295;48.518;9.206;2023-07-20T10:53:14;97048.72;;;24.18;34.89
32251;BME280;41295;48.518;9.206;2023-07-20T10:55:19;97047.44;;;24.12;35.22
32251;BME280;41295;48.518;9.206;2023-07-20T10:57:27;97049.16;;;24.13;34.85
32251;BME280;41295;48.518;9.206;2023-07-20T10:59:39;97044.25;;;24.09;33.06